createdAt,value
2022-11-13T00:05:03.908Z,70.37
2022-11-13T00:10:21.452Z,69.99
2022-11-13T00:15:38.721Z,69.65
2022-11-13T00:20:57.935Z,70.04
2022-11-13T00:26:17.664Z,70.74
2022-11-13T00:31:35.098Z,70.74
2022-11-13T00:36:53.644Z,71.28
2022-11-13T00:42:10.567Z,71.05
2022-11-13T00:47:27.560Z,71.21
2022-11-13T00:52:46.704Z,71.31
2022-11-13T00:58:04.985Z,71.28
2022-11-13T01:03:22.144Z,70.93
2022-11-13T01:08:40.677Z,71.68
2022-11-13T01:13:58.311Z,71.75
2022-11-13T01:19:15.530Z,71.47
2022-11-13T01:24:33.999Z,71.55
2022-11-13T01:29:51.050Z,71.87
2022-11-13T01:35:08.884Z,72.13
2022-11-13T01:40:27.327Z,72.12
2022-11-13T01:46:15.522Z,72.19
2022-11-13T01:51:36.288Z,71.96
2022-11-13T01:56:56.963Z,72.43
2022-11-13T02:02:14.264Z,73.50
2022-11-13T02:07:31.511Z,75.28
2022-11-13T02:12:52.653Z,75.37
2022-11-13T02:18:12.304Z,74.88
2022-11-13T02:23:37.470Z,74.84
2022-11-13T02:28:56.106Z,74.41
2022-11-13T02:34:13.078Z,74.13
2022-11-13T02:39:30.417Z,74.14
2022-11-13T02:44:49.083Z,75.63
2022-11-13T02:50:07.695Z,75.93
2022-11-13T02:55:24.949Z,75.31
2022-11-13T03:00:43.470Z,74.92
2022-11-13T03:06:00.899Z,75.22
2022-11-13T03:11:18.252Z,74.95
2022-11-13T03:16:37.263Z,75.39
2022-11-13T03:21:54.493Z,74.88
2022-11-13T03:27:11.428Z,74.42
2022-11-13T03:32:30.030Z,74.02
2022-11-13T03:37:46.899Z,73.68
2022-11-13T03:43:04.288Z,75.02
2022-11-13T03:48:23.208Z,75.19
2022-11-13T03:53:40.591Z,75.00
2022-11-13T03:58:57.593Z,75.05
2022-11-13T04:04:16.951Z,75.75
2022-11-13T04:09:34.407Z,75.97
2022-11-13T04:14:51.345Z,76.09
2022-11-13T04:20:10.980Z,77.16
2022-11-13T04:25:28.678Z,77.31
2022-11-13T04:30:45.813Z,77.61
2022-11-13T04:36:05.021Z,80.04
2022-11-13T04:41:40.217Z,81.34
2022-11-13T04:46:57.604Z,81.47
2022-11-13T04:52:16.482Z,81.37
2022-11-13T04:57:33.620Z,83.48
2022-11-13T05:02:50.883Z,83.33
2022-11-13T05:08:10.542Z,84.41
2022-11-13T05:13:27.720Z,83.84
2022-11-13T05:18:44.784Z,82.76
2022-11-13T05:24:03.547Z,82.03
2022-11-13T05:29:20.791Z,81.09
2022-11-13T05:34:38.023Z,80.31
2022-11-13T05:39:56.602Z,79.72
2022-11-13T05:45:14.080Z,78.80
2022-11-13T05:50:31.315Z,79.43
2022-11-13T05:55:49.825Z,81.92
2022-11-13T06:01:10.159Z,84.29
2022-11-13T06:06:28.596Z,85.01
2022-11-13T06:11:47.222Z,85.19
2022-11-13T06:17:04.172Z,85.11
2022-11-13T06:22:21.401Z,83.54
2022-11-13T06:27:39.661Z,82.38
2022-11-13T06:32:56.740Z,81.17
2022-11-13T06:38:13.834Z,82.87
2022-11-13T06:43:33.177Z,81.98
2022-11-13T06:48:51.091Z,81.84
2022-11-13T06:54:08.622Z,82.96
2022-11-13T06:59:27.499Z,81.96
2022-11-13T07:04:44.675Z,83.04
2022-11-13T07:10:01.800Z,81.65
2022-11-13T07:15:20.232Z,80.48
2022-11-13T07:20:37.436Z,80.45
2022-11-13T07:25:55.477Z,79.72
2022-11-13T07:31:15.469Z,80.51
2022-11-13T07:36:32.917Z,80.33
2022-11-13T07:41:50.041Z,80.66
2022-11-13T07:47:08.400Z,82.23
2022-11-13T07:52:25.349Z,80.98
2022-11-13T07:57:42.616Z,80.77
2022-11-13T08:03:06.236Z,81.16
2022-11-13T08:08:23.445Z,79.93
2022-11-13T08:13:40.702Z,79.33
2022-11-13T08:18:59.153Z,78.42
2022-11-13T08:24:16.211Z,77.42
2022-11-13T08:29:35.504Z,76.70
2022-11-13T08:34:54.012Z,76.68
2022-11-13T08:40:12.459Z,76.53
2022-11-13T08:45:31.053Z,75.96
2022-11-13T08:50:52.938Z,75.59
2022-11-13T08:56:09.963Z,75.91
2022-11-13T09:01:27.425Z,75.04
2022-11-13T09:06:46.146Z,75.06
2022-11-13T09:12:03.411Z,73.74
2022-11-13T09:17:20.501Z,73.16
2022-11-13T09:22:39.371Z,73.05
2022-11-13T09:27:58.026Z,73.05
2022-11-13T09:33:15.660Z,73.16
2022-11-13T09:38:34.558Z,71.75
2022-11-13T09:43:59.340Z,71.11
2022-11-13T09:49:19.024Z,70.89
2022-11-13T09:54:37.818Z,70.26
2022-11-13T10:00:00.977Z,71.31
2022-11-13T10:05:22.746Z,69.94
2022-11-13T10:10:55.639Z,71.11
2022-11-13T10:16:30.011Z,71.60
2022-11-13T10:22:07.554Z,72.17
2022-11-13T10:27:31.932Z,72.01
2022-11-13T10:32:49.378Z,71.41
2022-11-13T10:38:10.307Z,71.98
2022-11-13T10:43:29.466Z,71.38
2022-11-13T10:48:46.720Z,71.02
2022-11-13T10:54:21.685Z,69.63
2022-11-13T10:59:42.842Z,69.17
2022-11-13T11:05:04.500Z,69.50
2022-11-13T11:10:24.969Z,69.00
2022-11-13T11:15:49.237Z,67.15
2022-11-13T11:21:11.054Z,67.50
2022-11-13T11:26:33.622Z,66.32
2022-11-13T11:31:56.056Z,67.03
2022-11-13T11:37:16.022Z,66.80
2022-11-13T11:42:40.606Z,66.43
2022-11-13T11:48:01.946Z,65.94
2022-11-13T11:53:29.817Z,67.25
2022-11-13T11:59:04.416Z,67.70
2022-11-13T12:04:40.327Z,67.07
2022-11-13T12:10:10.315Z,66.84
2022-11-13T12:15:37.234Z,66.81
2022-11-13T12:21:06.278Z,66.31
2022-11-13T12:26:28.557Z,65.60
2022-11-13T12:31:56.215Z,65.29
2022-11-13T12:37:18.895Z,64.77
2022-11-13T12:42:40.906Z,64.16
2022-11-13T12:48:08.623Z,63.84
2022-11-13T12:53:29.155Z,63.18
2022-11-13T12:59:24.215Z,61.86
2022-11-13T13:04:59.787Z,61.00
2022-11-13T13:10:26.242Z,59.79
2022-11-13T13:15:47.571Z,60.10
2022-11-13T13:21:08.652Z,58.32
2022-11-13T13:26:30.132Z,55.78
2022-11-13T13:31:53.946Z,55.59
2022-11-13T13:37:22.835Z,55.36
2022-11-13T13:42:57.130Z,53.34
2022-11-13T13:48:18.086Z,51.75
2022-11-13T13:53:37.601Z,51.07
2022-11-13T13:58:56.367Z,50.90
2022-11-13T14:04:18.580Z,50.11
2022-11-13T14:09:35.853Z,49.07
2022-11-13T14:14:54.560Z,49.32
2022-11-13T14:20:13.948Z,50.03
2022-11-13T14:25:31.169Z,50.34
2022-11-13T14:30:57.541Z,50.62
2022-11-13T14:36:16.399Z,51.11
2022-11-13T14:41:36.573Z,51.57
2022-11-13T14:47:02.733Z,52.08
2022-11-13T14:52:28.181Z,52.60
2022-11-13T14:57:49.632Z,53.60
2022-11-13T15:03:07.948Z,54.66
2022-11-13T15:08:25.529Z,55.60
2022-11-13T15:13:43.380Z,56.42
2022-11-13T15:19:03.916Z,57.28
2022-11-13T15:24:20.967Z,58.19
2022-11-13T15:29:38.266Z,59.22
2022-11-13T15:34:56.535Z,60.09
2022-11-13T15:40:14.842Z,60.84
2022-11-13T15:45:32.075Z,61.18
2022-11-13T15:50:50.912Z,61.92
2022-11-13T15:56:09.005Z,67.23
2022-11-13T16:01:26.494Z,78.10
2022-11-13T16:06:46.147Z,69.28
2022-11-13T16:12:04.043Z,73.67
2022-11-13T16:17:21.355Z,68.82
2022-11-13T16:22:40.152Z,67.64
2022-11-13T16:27:57.535Z,67.31
2022-11-13T16:33:14.701Z,67.42
2022-11-13T16:38:36.174Z,67.61
2022-11-13T16:43:53.409Z,67.75
2022-11-13T16:49:18.882Z,67.82
2022-11-13T16:54:37.547Z,67.78
2022-11-13T16:59:55.172Z,67.71
2022-11-13T17:05:14.225Z,68.09
2022-11-13T17:10:33.577Z,68.32
2022-11-13T17:15:50.748Z,68.25
2022-11-13T17:21:07.896Z,92.15
2022-11-13T17:26:27.263Z,77.88
2022-11-13T17:31:44.397Z,74.04
2022-11-13T17:37:02.137Z,72.45
2022-11-13T17:42:20.934Z,71.60
2022-11-13T17:47:38.432Z,85.51
2022-11-13T17:52:55.927Z,79.88
2022-11-13T17:58:14.194Z,74.93
2022-11-13T18:03:31.599Z,73.26
2022-11-13T18:08:49.154Z,72.79
2022-11-13T18:14:07.539Z,72.52
2022-11-13T18:19:24.934Z,72.41
2022-11-13T18:24:44.329Z,71.88
2022-11-13T18:30:03.355Z,72.09
2022-11-13T18:35:20.494Z,72.03
2022-11-13T18:40:39.972Z,72.16
2022-11-13T18:46:00.070Z,72.26
2022-11-13T18:51:19.490Z,71.96
2022-11-13T18:56:36.889Z,71.58
2022-11-13T19:01:55.770Z,71.58
2022-11-13T19:07:13.403Z,71.63
2022-11-13T19:12:30.727Z,71.77
2022-11-13T19:17:52.790Z,71.26
2022-11-13T19:23:10.370Z,71.41
2022-11-13T19:28:28.285Z,71.46
2022-11-13T19:33:47.746Z,71.18
2022-11-13T19:39:05.720Z,71.03
2022-11-13T19:44:23.347Z,70.97
2022-11-13T19:49:42.704Z,70.74
2022-11-13T19:55:01.507Z,70.68
2022-11-13T20:00:20.228Z,70.76
2022-11-13T20:05:44.250Z,70.79
2022-11-13T20:11:23.521Z,70.73
2022-11-13T20:16:42.289Z,70.83
2022-11-13T20:22:02.606Z,70.86
2022-11-13T20:27:20.044Z,71.02
2022-11-13T20:32:38.216Z,70.67
2022-11-13T20:37:58.611Z,70.97
2022-11-13T20:43:18.835Z,71.40
2022-11-13T20:48:36.607Z,71.44
2022-11-13T20:53:57.275Z,71.45
2022-11-13T20:59:16.424Z,71.77
2022-11-13T21:04:34.569Z,71.74
2022-11-13T21:09:54.285Z,71.52
2022-11-13T21:15:12.991Z,71.17
2022-11-13T21:20:30.328Z,71.26
2022-11-13T21:26:00.078Z,71.51
2022-11-13T21:31:20.652Z,71.48
2022-11-13T21:36:38.525Z,71.44
2022-11-13T21:41:57.225Z,71.67
2022-11-13T21:47:16.167Z,71.63
2022-11-13T21:52:34.005Z,71.91
2022-11-13T21:57:52.487Z,71.99
2022-11-13T22:03:10.041Z,72.19
2022-11-13T22:08:27.976Z,72.01
2022-11-13T22:13:47.041Z,72.12
2022-11-13T22:19:05.792Z,72.02
2022-11-13T22:24:23.373Z,71.87
2022-11-13T22:29:41.992Z,71.75
2022-11-13T22:34:59.584Z,71.69
2022-11-13T22:40:16.721Z,71.42
2022-11-13T22:45:35.994Z,71.49
2022-11-13T22:50:53.547Z,71.92
2022-11-13T22:56:12.985Z,72.00
2022-11-13T23:01:33.184Z,72.00
2022-11-13T23:06:50.229Z,71.84
2022-11-13T23:12:07.447Z,71.80
2022-11-13T23:17:26.188Z,71.82
2022-11-13T23:22:43.731Z,71.58
2022-11-13T23:28:03.152Z,71.99
2022-11-13T23:33:22.120Z,71.87
2022-11-13T23:38:39.399Z,71.76
2022-11-13T23:44:12.295Z,72.08
2022-11-13T23:49:30.907Z,72.15
2022-11-13T23:54:48.457Z,72.59
